createdAt,value
2022-09-18T00:00:14.985Z,10.23
2022-09-18T00:02:42.213Z,13.73
2022-09-18T00:05:10.491Z,14.82
2022-09-18T00:07:37.786Z,17.85
2022-09-18T00:10:05.121Z,16.30
2022-09-18T00:12:32.260Z,9.52
2022-09-18T00:14:59.508Z,11.70
2022-09-18T00:17:26.651Z,9.70
2022-09-18T00:19:53.943Z,9.75
2022-09-18T00:22:21.125Z,9.27
2022-09-18T00:24:48.445Z,12.35
2022-09-18T00:27:15.604Z,11.63
2022-09-18T00:29:42.835Z,15.18
2022-09-18T00:32:10.010Z,12.35
2022-09-18T00:34:38.924Z,11.02
2022-09-18T00:37:06.108Z,13.38
2022-09-18T00:39:33.308Z,12.40
2022-09-18T00:42:00.489Z,15.35
2022-09-18T00:44:36.103Z,7.63
2022-09-18T00:47:12.508Z,9.30
2022-09-18T00:49:50.653Z,11.07
2022-09-18T00:52:18.995Z,13.20
2022-09-18T00:54:48.801Z,13.73
2022-09-18T00:57:18.124Z,9.77
2022-09-18T00:59:46.985Z,15.88
2022-09-18T01:02:14.387Z,17.27
2022-09-18T01:04:41.665Z,6.80
2022-09-18T01:07:08.907Z,11.10
2022-09-18T01:09:45.096Z,18.02
2022-09-18T01:12:12.312Z,12.52
2022-09-18T01:14:39.484Z,18.55
2022-09-18T01:17:13.548Z,12.77
2022-09-18T01:19:43.415Z,6.60
2022-09-18T01:22:19.508Z,10.98
2022-09-18T01:24:53.756Z,16.65
2022-09-18T01:27:29.848Z,8.93
2022-09-18T01:30:10.135Z,10.20
2022-09-18T01:32:48.891Z,15.63
2022-09-18T01:35:41.637Z,9.02
2022-09-18T01:38:12.886Z,8.85
2022-09-18T01:40:59.189Z,11.88
2022-09-18T01:43:28.773Z,8.38
2022-09-18T01:45:58.539Z,9.90
2022-09-18T01:48:31.464Z,9.23
2022-09-18T01:51:06.397Z,16.67
2022-09-18T01:53:40.656Z,14.38
2022-09-18T01:56:10.652Z,12.85
2022-09-18T01:58:38.492Z,9.75
2022-09-18T02:01:09.527Z,14.25
2022-09-18T02:03:40.296Z,9.43
2022-09-18T02:06:10.621Z,10.27
2022-09-18T02:08:38.613Z,11.07
2022-09-18T02:11:10.145Z,9.73
2022-09-18T02:13:43.233Z,8.75
2022-09-18T02:16:20.984Z,9.00
2022-09-18T02:18:51.128Z,8.50
2022-09-18T02:21:21.171Z,7.63
2022-09-18T02:23:48.908Z,11.27
2022-09-18T02:26:17.940Z,11.73
2022-09-18T02:28:45.951Z,14.20
2022-09-18T02:31:13.238Z,8.70
2022-09-18T02:33:40.537Z,12.48
2022-09-18T02:36:18.123Z,12.65
2022-09-18T02:38:45.234Z,16.92
2022-09-18T02:41:34.683Z,17.85
2022-09-18T02:44:01.858Z,10.68
2022-09-18T02:46:37.916Z,15.23
2022-09-18T02:49:27.939Z,11.93
2022-09-18T02:51:55.100Z,12.20
2022-09-18T02:54:26.267Z,12.82
2022-09-18T02:56:56.821Z,11.55
2022-09-18T02:59:26.965Z,11.88
2022-09-18T03:01:55.658Z,9.25
2022-09-18T03:04:24.081Z,12.55
2022-09-18T03:06:51.281Z,14.60
2022-09-18T03:09:18.413Z,14.80
2022-09-18T03:11:45.844Z,8.35
2022-09-18T03:14:13.203Z,10.27
2022-09-18T03:16:40.369Z,9.60
2022-09-18T03:19:07.634Z,16.17
2022-09-18T03:21:34.836Z,9.60
2022-09-18T03:24:02.638Z,10.20
2022-09-18T03:26:29.854Z,10.60
2022-09-18T03:28:59.549Z,7.13
2022-09-18T03:31:26.958Z,11.25
2022-09-18T03:33:54.148Z,6.95
2022-09-18T03:36:21.299Z,14.98
2022-09-18T03:38:48.480Z,11.52
2022-09-18T03:41:15.635Z,10.50
2022-09-18T03:43:42.783Z,7.00
2022-09-18T03:46:09.996Z,9.60
2022-09-18T03:48:37.188Z,12.90
2022-09-18T03:51:04.391Z,13.65
2022-09-18T03:53:31.587Z,10.25
2022-09-18T03:55:58.769Z,10.38
2022-09-18T03:58:25.985Z,10.40
2022-09-18T04:00:53.246Z,11.43
2022-09-18T04:03:20.417Z,10.05
2022-09-18T04:05:49.312Z,14.90
2022-09-18T04:08:16.817Z,13.30
2022-09-18T04:10:44.361Z,16.52
2022-09-18T04:13:11.554Z,12.77
2022-09-18T04:15:38.686Z,12.25
2022-09-18T04:18:06.795Z,15.90
2022-09-18T04:20:33.971Z,10.55
2022-09-18T04:23:01.156Z,12.32
2022-09-18T04:25:28.837Z,14.82
2022-09-18T04:27:55.976Z,12.63
2022-09-18T04:30:23.168Z,20.63
2022-09-18T04:32:50.341Z,11.23
2022-09-18T04:35:18.688Z,12.70
2022-09-18T04:37:45.824Z,8.02
2022-09-18T04:40:13.205Z,14.10
2022-09-18T04:42:40.508Z,19.00
2022-09-18T04:45:08.608Z,6.95
2022-09-18T04:47:35.784Z,10.38
2022-09-18T04:50:04.052Z,7.93
2022-09-18T04:52:31.331Z,16.63
2022-09-18T04:54:58.503Z,16.73
2022-09-18T04:57:25.631Z,15.88
2022-09-18T04:59:52.829Z,11.68
2022-09-18T05:02:20.776Z,12.05
2022-09-18T05:04:48.013Z,9.05
2022-09-18T05:07:15.140Z,9.98
2022-09-18T05:09:42.575Z,10.65
2022-09-18T05:12:09.955Z,14.65
2022-09-18T05:14:37.168Z,14.98
2022-09-18T05:17:04.317Z,17.00
2022-09-18T05:19:31.480Z,10.85
2022-09-18T05:21:58.620Z,12.45
2022-09-18T05:24:25.848Z,11.30
2022-09-18T05:26:52.977Z,8.93
2022-09-18T05:29:20.149Z,7.90
2022-09-18T05:31:47.899Z,7.07
2022-09-18T05:34:15.085Z,8.75
2022-09-18T05:36:42.300Z,11.88
2022-09-18T05:39:12.115Z,11.52
2022-09-18T05:41:41.397Z,7.97
2022-09-18T05:44:08.582Z,11.68
2022-09-18T05:46:35.774Z,8.77
2022-09-18T05:49:02.973Z,9.73
2022-09-18T05:51:30.225Z,11.25
2022-09-18T05:53:57.358Z,11.20
2022-09-18T05:56:24.504Z,13.45
2022-09-18T05:58:51.712Z,9.57
2022-09-18T06:01:18.826Z,8.98
2022-09-18T06:03:46.091Z,11.55
2022-09-18T06:06:13.257Z,12.52
2022-09-18T06:08:40.429Z,11.30
2022-09-18T06:11:07.587Z,5.63
2022-09-18T06:13:34.749Z,15.02
2022-09-18T06:16:02.005Z,4.32
2022-09-18T06:18:29.249Z,8.93
2022-09-18T06:20:58.106Z,14.40
2022-09-18T06:23:26.040Z,14.25
2022-09-18T06:25:59.936Z,10.50
2022-09-18T06:28:27.371Z,9.30
2022-09-18T06:30:54.566Z,9.88
2022-09-18T06:33:21.711Z,8.00
2022-09-18T06:35:49.159Z,8.63
2022-09-18T06:38:16.771Z,9.02
2022-09-18T06:40:50.639Z,9.70
2022-09-18T06:43:18.156Z,7.78
2022-09-18T06:45:50.888Z,8.50
2022-09-18T06:48:18.256Z,11.73
2022-09-18T06:50:45.469Z,7.43
2022-09-18T06:53:12.967Z,12.40
2022-09-18T06:55:40.200Z,12.13
2022-09-18T06:58:07.355Z,9.65
2022-09-18T07:00:34.642Z,6.65
2022-09-18T07:03:02.480Z,11.07
2022-09-18T07:05:31.031Z,8.20
2022-09-18T07:07:58.632Z,8.10
2022-09-18T07:10:27.152Z,12.98
2022-09-18T07:12:57.744Z,11.75
2022-09-18T07:15:25.474Z,10.93
2022-09-18T07:17:52.701Z,8.07
2022-09-18T07:20:20.484Z,8.93
2022-09-18T07:22:55.396Z,11.35
2022-09-18T07:25:22.850Z,9.10
2022-09-18T07:27:50.745Z,14.63
2022-09-18T07:30:18.385Z,9.77
2022-09-18T07:32:46.668Z,14.45
2022-09-18T07:35:14.503Z,6.95
2022-09-18T07:37:41.756Z,10.95
2022-09-18T07:40:09.734Z,9.35
2022-09-18T07:42:37.090Z,10.20
2022-09-18T07:45:06.061Z,6.47
2022-09-18T07:47:33.475Z,9.13
2022-09-18T07:50:00.686Z,5.80
2022-09-18T07:52:27.971Z,12.57
2022-09-18T07:54:55.157Z,7.53
2022-09-18T07:57:22.350Z,11.27
2022-09-18T07:59:49.715Z,8.10
2022-09-18T08:02:17.102Z,9.02
2022-09-18T08:04:44.283Z,14.38
2022-09-18T08:07:11.453Z,6.90
2022-09-18T08:09:38.588Z,10.82
2022-09-18T08:12:05.822Z,6.35
2022-09-18T08:14:33.012Z,6.47
2022-09-18T08:17:00.261Z,5.10
2022-09-18T08:19:27.401Z,5.88
2022-09-18T08:21:54.549Z,8.45
2022-09-18T08:24:21.734Z,8.13
2022-09-18T08:26:48.873Z,10.05
2022-09-18T08:29:19.314Z,10.27
2022-09-18T08:31:47.360Z,6.90
2022-09-18T08:34:14.665Z,7.80
2022-09-18T08:36:41.870Z,8.40
2022-09-18T08:39:09.127Z,5.47
2022-09-18T08:41:42.487Z,10.70
2022-09-18T08:44:26.179Z,4.30
2022-09-18T08:47:05.821Z,9.38
2022-09-18T08:49:33.024Z,10.73
2022-09-18T08:52:00.155Z,9.07
2022-09-18T08:54:27.645Z,6.93
2022-09-18T08:56:56.441Z,10.45
2022-09-18T08:59:36.649Z,11.38
2022-09-18T09:02:25.337Z,5.35
2022-09-18T09:04:53.761Z,7.82
2022-09-18T09:07:21.138Z,8.93
2022-09-18T09:09:54.560Z,11.88
2022-09-18T09:12:27.581Z,8.95
2022-09-18T09:15:00.699Z,2.88
2022-09-18T09:17:28.238Z,10.20
2022-09-18T09:20:03.906Z,2.25
2022-09-18T09:22:46.310Z,3.05
2022-09-18T09:25:31.884Z,5.47
2022-09-18T09:28:19.349Z,6.28
2022-09-18T09:30:49.174Z,3.67
2022-09-18T09:33:25.145Z,8.45
2022-09-18T09:35:54.907Z,5.47
2022-09-18T09:38:22.349Z,9.00
2022-09-18T09:40:51.256Z,5.93
2022-09-18T09:43:19.226Z,5.88
2022-09-18T09:45:52.971Z,7.65
2022-09-18T09:48:35.839Z,4.43
2022-09-18T09:51:17.983Z,8.13
2022-09-18T09:53:46.222Z,4.22
2022-09-18T09:56:13.777Z,8.68
2022-09-18T09:59:08.139Z,9.95
2022-09-18T10:01:40.196Z,10.90
2022-09-18T10:04:13.653Z,9.13
2022-09-18T10:06:59.586Z,4.63
2022-09-18T10:09:33.588Z,10.05
2022-09-18T10:12:07.331Z,4.65
2022-09-18T10:14:37.003Z,7.05
2022-09-18T10:17:04.993Z,7.05
2022-09-18T10:19:40.634Z,6.03
2022-09-18T10:22:08.674Z,6.78
2022-09-18T10:24:47.783Z,6.10
2022-09-18T10:27:15.745Z,6.70
2022-09-18T10:29:43.257Z,8.55
2022-09-18T10:32:13.817Z,5.30
2022-09-18T10:34:51.097Z,5.63
2022-09-18T10:37:30.497Z,7.53
2022-09-18T10:39:59.929Z,7.00
2022-09-18T10:42:28.313Z,7.78
2022-09-18T10:45:02.049Z,8.10
2022-09-18T10:47:33.521Z,8.98
2022-09-18T10:50:02.199Z,9.82
2022-09-18T10:52:38.406Z,9.90
2022-09-18T10:55:06.147Z,8.93
2022-09-18T10:57:34.542Z,12.75
2022-09-18T11:00:05.420Z,10.02
2022-09-18T11:02:37.968Z,7.22
2022-09-18T11:05:05.283Z,8.20
2022-09-18T11:07:32.413Z,8.70
2022-09-18T11:10:09.906Z,6.28
2022-09-18T11:12:37.440Z,6.57
2022-09-18T11:15:07.755Z,9.18
2022-09-18T11:17:35.988Z,9.07
2022-09-18T11:20:04.202Z,10.10
2022-09-18T11:22:35.806Z,8.95
2022-09-18T11:25:15.115Z,6.40
2022-09-18T11:28:01.000Z,8.23
2022-09-18T11:33:02.636Z,9.85
2022-09-18T11:35:31.086Z,9.13
2022-09-18T11:38:00.248Z,7.30
2022-09-18T11:40:30.451Z,8.70
2022-09-18T11:42:58.019Z,9.13
2022-09-18T11:45:44.031Z,7.78
2022-09-18T11:48:30.253Z,7.60
2022-09-18T11:50:58.760Z,8.25
2022-09-18T11:53:55.395Z,11.93
2022-09-18T11:56:32.205Z,8.95
2022-09-18T11:59:02.214Z,9.70
2022-09-18T12:01:34.568Z,5.80
2022-09-18T12:04:08.005Z,5.68
2022-09-18T12:06:40.055Z,9.40
2022-09-18T12:09:15.860Z,4.57
2022-09-18T12:11:57.090Z,7.70
2022-09-18T12:14:30.399Z,5.10
2022-09-18T12:17:00.732Z,9.93
2022-09-18T12:19:31.020Z,12.45
2022-09-18T12:22:07.196Z,9.27
2022-09-18T12:24:34.366Z,5.88
2022-09-18T12:27:04.618Z,11.88
2022-09-18T12:29:50.655Z,9.27
2022-09-18T12:32:31.644Z,7.72
2022-09-18T12:35:08.117Z,10.02
2022-09-18T12:37:47.953Z,12.00
2022-09-18T12:40:22.709Z,6.47
2022-09-18T12:42:58.792Z,10.35
2022-09-18T12:45:28.864Z,4.93
2022-09-18T12:48:00.573Z,7.00
2022-09-18T12:50:33.621Z,10.48
2022-09-18T12:53:17.617Z,12.65
2022-09-18T12:55:55.344Z,8.10
2022-09-18T12:58:41.061Z,8.45
2022-09-18T13:01:34.533Z,9.77
2022-09-18T13:04:04.773Z,8.63
2022-09-18T13:06:35.417Z,8.23
2022-09-18T13:09:05.851Z,9.32
2022-09-18T13:11:39.054Z,10.55
2022-09-18T13:14:10.449Z,6.65
2022-09-18T13:16:41.344Z,7.13
2022-09-18T13:19:08.503Z,12.77
2022-09-18T13:21:37.547Z,10.07
2022-09-18T13:24:05.732Z,17.27
2022-09-18T13:26:34.196Z,7.63
2022-09-18T13:29:01.765Z,15.48
2022-09-18T13:31:33.567Z,8.40
2022-09-18T13:34:02.469Z,10.45
2022-09-18T13:36:37.591Z,8.00
2022-09-18T13:39:15.689Z,9.90
2022-09-18T13:41:44.660Z,8.75
2022-09-18T13:44:20.545Z,6.43
2022-09-18T13:46:48.809Z,5.22
2022-09-18T13:49:29.022Z,8.18
2022-09-18T13:51:56.625Z,8.77
2022-09-18T13:54:25.350Z,11.13
2022-09-18T13:57:05.059Z,8.68
2022-09-18T13:59:50.970Z,16.73
2022-09-18T14:04:48.486Z,10.02
2022-09-18T14:07:35.964Z,15.18
2022-09-18T14:10:05.752Z,14.15
2022-09-18T14:12:34.724Z,11.27
2022-09-18T14:15:03.334Z,10.13
2022-09-18T14:17:32.227Z,12.63
2022-09-18T14:20:07.503Z,11.77
2022-09-18T14:22:38.136Z,8.65
2022-09-18T14:25:07.297Z,8.52
2022-09-18T14:27:37.559Z,6.32
2022-09-18T14:30:15.803Z,10.00
2022-09-18T14:32:45.391Z,12.30
2022-09-18T14:35:19.372Z,14.27
2022-09-18T14:37:47.000Z,7.88
2022-09-18T14:40:20.919Z,10.05
2022-09-18T14:42:48.805Z,9.80
2022-09-18T14:45:30.134Z,11.93
2022-09-18T14:47:58.219Z,9.68
2022-09-18T14:50:31.589Z,7.20
2022-09-18T14:53:00.507Z,14.60
2022-09-18T14:55:31.107Z,6.70
2022-09-18T14:58:01.570Z,8.75
2022-09-18T15:00:30.739Z,15.32
2022-09-18T15:03:00.276Z,16.13
2022-09-18T15:05:28.328Z,15.05
2022-09-18T15:08:01.708Z,14.13
2022-09-18T15:10:29.046Z,14.27
2022-09-18T15:12:57.956Z,11.20
2022-09-18T15:15:26.396Z,9.73
2022-09-18T15:17:54.279Z,11.10
2022-09-18T15:20:22.233Z,12.88
2022-09-18T15:22:51.328Z,11.38
2022-09-18T15:25:21.491Z,9.85
2022-09-18T15:27:49.330Z,7.50
2022-09-18T15:30:24.074Z,16.25
2022-09-18T15:33:04.575Z,13.48
2022-09-18T15:35:36.433Z,8.65
2022-09-18T15:38:08.687Z,13.32
2022-09-18T15:40:37.718Z,8.95
2022-09-18T15:43:06.368Z,14.27
2022-09-18T15:45:35.422Z,9.95
2022-09-18T15:48:22.530Z,3.17
2022-09-18T15:50:49.906Z,10.02
2022-09-18T15:53:25.222Z,10.82
2022-09-18T15:55:54.980Z,5.47
2022-09-18T15:58:29.244Z,12.60
2022-09-18T16:00:58.486Z,7.13
2022-09-18T16:03:28.036Z,9.52
2022-09-18T16:05:56.381Z,8.18
2022-09-18T16:08:26.236Z,4.78
2022-09-18T16:10:54.963Z,10.13
2022-09-18T16:13:22.303Z,3.25
2022-09-18T16:16:12.763Z,9.00
2022-09-18T16:18:52.413Z,12.60
2022-09-18T16:21:20.196Z,9.40
2022-09-18T16:23:50.435Z,11.40
2022-09-18T16:26:24.525Z,7.03
2022-09-18T16:28:53.186Z,12.13
2022-09-18T16:31:21.641Z,10.75
2022-09-18T16:34:01.276Z,9.25
2022-09-18T16:36:34.144Z,7.72
2022-09-18T16:39:02.284Z,11.95
2022-09-18T16:41:30.454Z,9.07
2022-09-18T16:43:57.865Z,18.77
2022-09-18T16:46:28.064Z,15.70
2022-09-18T16:48:56.047Z,9.68
2022-09-18T16:51:23.382Z,5.95
2022-09-18T16:53:50.615Z,9.98
2022-09-18T16:56:20.389Z,11.60
2022-09-18T16:58:47.703Z,12.43
2022-09-18T17:01:15.703Z,7.78
2022-09-18T17:03:42.888Z,13.52
2022-09-18T17:06:10.066Z,4.20
2022-09-18T17:08:37.204Z,10.32
2022-09-18T17:11:06.168Z,13.50
2022-09-18T17:13:33.511Z,7.75
2022-09-18T17:16:01.987Z,8.32
2022-09-18T17:18:29.366Z,12.68
2022-09-18T17:20:56.742Z,6.38
2022-09-18T17:23:23.899Z,10.60
2022-09-18T17:25:52.396Z,5.53
2022-09-18T17:28:19.567Z,8.45
2022-09-18T17:30:47.751Z,8.63
2022-09-18T17:33:18.576Z,7.47
2022-09-18T17:35:47.531Z,14.82
2022-09-18T17:38:14.788Z,11.35
2022-09-18T17:40:42.010Z,10.23
2022-09-18T17:43:09.180Z,6.30
2022-09-18T17:45:36.340Z,8.85
2022-09-18T17:48:03.533Z,10.32
2022-09-18T17:50:30.747Z,14.48
2022-09-18T17:52:57.964Z,12.02
2022-09-18T17:55:25.184Z,10.15
2022-09-18T17:57:52.925Z,8.93
2022-09-18T18:00:20.635Z,13.68
2022-09-18T18:02:47.832Z,14.20
2022-09-18T18:05:16.868Z,10.07
2022-09-18T18:07:44.112Z,14.85
2022-09-18T18:10:11.458Z,12.13
2022-09-18T18:12:38.682Z,11.73
2022-09-18T18:15:06.229Z,17.98
2022-09-18T18:17:34.741Z,13.10
2022-09-18T18:20:02.912Z,20.10
2022-09-18T18:22:31.056Z,20.48
2022-09-18T18:24:59.150Z,25.70
2022-09-18T18:27:26.335Z,13.93
2022-09-18T18:29:53.657Z,12.23
2022-09-18T18:32:20.846Z,22.05
2022-09-18T18:34:48.473Z,18.15
2022-09-18T18:37:15.664Z,17.48
2022-09-18T18:39:42.859Z,14.85
2022-09-18T18:42:10.089Z,13.93
2022-09-18T18:44:37.496Z,15.88
2022-09-18T18:47:04.831Z,13.43
2022-09-18T18:49:32.940Z,23.88
2022-09-18T18:52:04.024Z,17.90
2022-09-18T18:54:31.595Z,19.88
2022-09-18T18:56:58.807Z,15.02
2022-09-18T18:59:26.164Z,16.20
2022-09-18T19:01:56.511Z,27.08
2022-09-18T19:04:24.739Z,12.43
2022-09-18T19:06:52.652Z,22.75
2022-09-18T19:09:21.314Z,20.67
2022-09-18T19:11:49.358Z,14.63
2022-09-18T19:14:18.155Z,18.52
2022-09-18T19:16:46.019Z,17.85
2022-09-18T19:19:13.880Z,19.02
2022-09-18T19:21:41.448Z,11.15
2022-09-18T19:24:09.719Z,20.02
2022-09-18T19:26:37.790Z,16.92
2022-09-18T19:29:07.007Z,21.98
2022-09-18T19:31:35.009Z,22.70
2022-09-18T19:34:02.185Z,17.48
2022-09-18T19:36:30.115Z,18.35
2022-09-18T19:38:58.336Z,23.08
2022-09-18T19:41:44.393Z,23.77
2022-09-18T19:44:22.980Z,21.77
2022-09-18T19:46:50.858Z,22.23
2022-09-18T19:49:19.616Z,21.17
2022-09-18T19:51:47.230Z,20.95
2022-09-18T19:54:14.760Z,20.67
2022-09-18T19:56:48.748Z,29.00
2022-09-18T19:59:17.075Z,17.95
2022-09-18T20:01:44.685Z,24.55
2022-09-18T20:04:11.935Z,25.25
2022-09-18T20:06:40.476Z,23.52
2022-09-18T20:09:08.165Z,24.23
2022-09-18T20:11:35.363Z,30.00
2022-09-18T20:14:03.324Z,17.15
2022-09-18T20:16:30.544Z,21.08
2022-09-18T20:18:57.851Z,20.58
2022-09-18T20:21:25.172Z,22.83
2022-09-18T20:23:56.844Z,25.50
2022-09-18T20:26:23.996Z,25.23
2022-09-18T20:28:51.277Z,17.60
2022-09-18T20:31:18.946Z,27.02
2022-09-18T20:33:46.125Z,25.52
2022-09-18T20:36:13.345Z,21.58
2022-09-18T20:38:42.232Z,35.25
2022-09-18T20:41:16.508Z,25.70
2022-09-18T20:43:44.209Z,33.60
2022-09-18T20:46:16.235Z,22.98
2022-09-18T20:48:46.404Z,25.40
2022-09-18T20:51:14.676Z,20.95
2022-09-18T20:53:43.194Z,21.77
2022-09-18T20:56:11.343Z,20.00
2022-09-18T20:58:42.290Z,34.33
2022-09-18T21:01:11.338Z,25.95
2022-09-18T21:03:40.870Z,24.70
2022-09-18T21:06:23.502Z,25.02
2022-09-18T21:08:53.468Z,22.30
2022-09-18T21:11:25.454Z,28.23
2022-09-18T21:13:57.406Z,21.45
2022-09-18T21:16:26.204Z,23.48
2022-09-18T21:18:55.664Z,21.70
2022-09-18T21:21:23.304Z,25.70
2022-09-18T21:23:53.876Z,25.02
2022-09-18T21:26:21.474Z,18.55
2022-09-18T21:28:52.822Z,16.98
2022-09-18T21:31:20.692Z,16.50
2022-09-18T21:33:48.348Z,22.08
2022-09-18T21:36:15.562Z,20.20
2022-09-18T21:38:42.757Z,20.88
2022-09-18T21:41:10.389Z,26.23
2022-09-18T21:43:38.239Z,18.85
2022-09-18T21:46:11.325Z,17.52
2022-09-18T21:48:42.231Z,18.30
2022-09-18T21:51:13.830Z,20.60
2022-09-18T21:53:41.535Z,18.30
2022-09-18T21:56:10.129Z,18.05
2022-09-18T21:58:40.525Z,21.08
2022-09-18T22:01:15.572Z,18.08
2022-09-18T22:03:50.585Z,19.05
2022-09-18T22:06:18.812Z,13.15
2022-09-18T22:08:48.852Z,15.30
2022-09-18T22:11:16.223Z,19.50
2022-09-18T22:13:43.571Z,16.70
2022-09-18T22:16:10.786Z,19.95
2022-09-18T22:18:40.223Z,16.98
2022-09-18T22:21:17.304Z,14.90
2022-09-18T22:23:44.769Z,15.45
2022-09-18T22:26:11.960Z,7.13
2022-09-18T22:28:39.180Z,14.13
2022-09-18T22:31:06.415Z,15.30
2022-09-18T22:33:34.689Z,14.25
2022-09-18T22:36:03.440Z,18.65
2022-09-18T22:38:30.652Z,16.98
2022-09-18T22:41:01.773Z,21.02
2022-09-18T22:43:28.976Z,12.18
2022-09-18T22:46:09.952Z,14.80
2022-09-18T22:48:37.257Z,23.67
2022-09-18T22:51:11.969Z,18.23
2022-09-18T22:53:41.993Z,16.98
2022-09-18T22:56:13.563Z,17.70
2022-09-18T22:58:44.114Z,18.65
2022-09-18T23:01:18.434Z,11.18
2022-09-18T23:03:46.545Z,13.27
2022-09-18T23:06:15.618Z,18.65
2022-09-18T23:08:43.322Z,18.77
2022-09-18T23:11:14.354Z,15.77
2022-09-18T23:13:42.395Z,20.40
2022-09-18T23:16:11.117Z,19.92
2022-09-18T23:18:38.475Z,20.42
2022-09-18T23:21:11.293Z,24.20
2022-09-18T23:23:39.170Z,15.73
2022-09-18T23:26:13.245Z,19.60
2022-09-18T23:28:41.876Z,14.55
2022-09-18T23:31:10.771Z,15.73
2022-09-18T23:33:38.431Z,15.82
2022-09-18T23:36:13.784Z,15.70
2022-09-18T23:41:08.947Z,20.88
2022-09-18T23:43:36.131Z,15.50
2022-09-18T23:46:03.776Z,16.23
2022-09-18T23:48:31.499Z,18.13
2022-09-18T23:51:02.457Z,25.45
2022-09-18T23:53:32.675Z,18.50
2022-09-18T23:56:10.035Z,19.98
2022-09-18T23:58:37.663Z,16.50
